sensor_id;sensor_type;location;lat;lon;timestamp;P1;durP1;ratioP1;P2;durP2;ratioP2
76131;SDS011;64877;50.994;13.650;2023-11-21T00:02:25;2.97;;;1.00;;
76131;SDS011;64877;50.994;13.650;2023-11-21T00:04:50;2.22;;;1.02;;
76131;SDS011;64877;50.994;13.650;2023-11-21T00:07:17;4.47;;;1.00;;
76131;SDS011;64877;50.994;13.650;2023-11-21T00:09:42;4.28;;;1.20;;
76131;SDS011;64877;50.994;13.650;2023-11-21T00:12:08;1.90;;;0.93;;
76131;SDS011;64877;50.994;13.650;2023-11-21T00:14:37;2.42;;;1.10;;
76131;SDS011;64877;50.994;13.650;2023-11-21T00:17:03;2.33;;;1.00;;
76131;SDS011;64877;50.994;13.650;2023-11-21T00:19:30;3.42;;;1.20;;
76131;SDS011;64877;50.994;13.650;2023-11-21T00:21:56;3.10;;;1.10;;
76131;SDS011;64877;50.994;13.650;2023-11-21T00:24:23;5.40;;;1.40;;
76131;SDS011;64877;50.994;13.650;2023-11-21T00:26:50;3.15;;;1.10;;
76131;SDS011;64877;50.994;13.650;2023-11-21T00:29:16;6.15;;;1.25;;
76131;SDS011;64877;50.994;13.650;2023-11-21T00:31:43;2.83;;;1.17;;
76131;SDS011;64877;50.994;13.650;2023-11-21T00:34:11;3.38;;;1.33;;
76131;SDS011;64877;50.994;13.650;2023-11-21T00:36:37;4.18;;;1.30;;
76131;SDS011;64877;50.994;13.650;2023-11-21T00:39:03;3.78;;;1.00;;
76131;SDS011;64877;50.994;13.650;2023-11-21T00:41:31;4.93;;;1.52;;
76131;SDS011;64877;50.994;13.650;2023-11-21T00:43:57;5.88;;;1.20;;
76131;SDS011;64877;50.994;13.650;2023-11-21T00:46:22;3.35;;;1.45;;
76131;SDS011;64877;50.994;13.650;2023-11-21T00:48:49;2.58;;;1.00;;
76131;SDS011;64877;50.994;13.650;2023-11-21T00:51:15;2.95;;;1.08;;
76131;SDS011;64877;50.994;13.650;2023-11-21T00:53:42;9.85;;;1.30;;
76131;SDS011;64877;50.994;13.650;2023-11-21T00:56:07;3.45;;;1.23;;
76131;SDS011;64877;50.994;13.650;2023-11-21T00:58:33;2.95;;;1.40;;
76131;SDS011;64877;50.994;13.650;2023-11-21T01:00:59;3.10;;;1.20;;
76131;SDS011;64877;50.994;13.650;2023-11-21T01:03:24;5.25;;;1.40;;
76131;SDS011;64877;50.994;13.650;2023-11-21T01:05:50;4.70;;;1.38;;
76131;SDS011;64877;50.994;13.650;2023-11-21T01:08:15;6.22;;;1.40;;
76131;SDS011;64877;50.994;13.650;2023-11-21T01:10:41;3.17;;;1.38;;
76131;SDS011;64877;50.994;13.650;2023-11-21T01:13:07;4.40;;;1.10;;
76131;SDS011;64877;50.994;13.650;2023-11-21T01:15:33;5.43;;;1.30;;
76131;SDS011;64877;50.994;13.650;2023-11-21T01:17:59;4.18;;;1.63;;
76131;SDS011;64877;50.994;13.650;2023-11-21T01:20:24;3.75;;;1.55;;
76131;SDS011;64877;50.994;13.650;2023-11-21T01:22:50;6.03;;;1.38;;
76131;SDS011;64877;50.994;13.650;2023-11-21T01:25:15;3.20;;;1.30;;
76131;SDS011;64877;50.994;13.650;2023-11-21T01:27:42;7.88;;;1.30;;
76131;SDS011;64877;50.994;13.650;2023-11-21T01:30:08;8.32;;;1.60;;
76131;SDS011;64877;50.994;13.650;2023-11-21T01:32:36;2.17;;;1.20;;
76131;SDS011;64877;50.994;13.650;2023-11-21T01:35:02;2.15;;;1.20;;
76131;SDS011;64877;50.994;13.650;2023-11-21T01:37:30;5.78;;;1.52;;
76131;SDS011;64877;50.994;13.650;2023-11-21T01:39:56;4.50;;;1.42;;
76131;SDS011;64877;50.994;13.650;2023-11-21T01:42:21;3.83;;;1.60;;
76131;SDS011;64877;50.994;13.650;2023-11-21T01:44:47;3.25;;;1.17;;
76131;SDS011;64877;50.994;13.650;2023-11-21T01:47:13;5.72;;;1.67;;
76131;SDS011;64877;50.994;13.650;2023-11-21T01:49:39;5.32;;;1.75;;
76131;SDS011;64877;50.994;13.650;2023-11-21T01:52:04;3.20;;;1.20;;
76131;SDS011;64877;50.994;13.650;2023-11-21T01:54:31;3.20;;;1.20;;
76131;SDS011;64877;50.994;13.650;2023-11-21T01:56:57;3.05;;;1.17;;
76131;SDS011;64877;50.994;13.650;2023-11-21T01:59:29;2.40;;;0.90;;
76131;SDS011;64877;50.994;13.650;2023-11-21T02:02:00;4.80;;;1.85;;
76131;SDS011;64877;50.994;13.650;2023-11-21T02:04:25;3.20;;;1.10;;
76131;SDS011;64877;50.994;13.650;2023-11-21T02:06:52;4.63;;;1.20;;
76131;SDS011;64877;50.994;13.650;2023-11-21T02:09:23;4.25;;;1.42;;
76131;SDS011;64877;50.994;13.650;2023-11-21T02:11:51;4.60;;;1.15;;
76131;SDS011;64877;50.994;13.650;2023-11-21T02:14:16;3.28;;;1.10;;
76131;SDS011;64877;50.994;13.650;2023-11-21T02:16:45;2.55;;;0.88;;
76131;SDS011;64877;50.994;13.650;2023-11-21T02:19:16;4.10;;;0.85;;
76131;SDS011;64877;50.994;13.650;2023-11-21T02:21:49;2.38;;;1.13;;
76131;SDS011;64877;50.994;13.650;2023-11-21T02:24:23;5.30;;;1.15;;
76131;SDS011;64877;50.994;13.650;2023-11-21T02:26:49;6.22;;;1.40;;
76131;SDS011;64877;50.994;13.650;2023-11-21T02:29:18;4.93;;;1.15;;
76131;SDS011;64877;50.994;13.650;2023-11-21T02:31:53;4.05;;;1.13;;
76131;SDS011;64877;50.994;13.650;2023-11-21T02:34:20;5.20;;;0.85;;
76131;SDS011;64877;50.994;13.650;2023-11-21T02:36:47;3.28;;;0.88;;
76131;SDS011;64877;50.994;13.650;2023-11-21T02:39:17;5.03;;;1.05;;
76131;SDS011;64877;50.994;13.650;2023-11-21T02:41:43;3.65;;;1.08;;
76131;SDS011;64877;50.994;13.650;2023-11-21T02:44:09;4.25;;;1.30;;
76131;SDS011;64877;50.994;13.650;2023-11-21T02:46:35;5.38;;;1.40;;
76131;SDS011;64877;50.994;13.650;2023-11-21T02:49:01;3.05;;;1.25;;
76131;SDS011;64877;50.994;13.650;2023-11-21T02:51:27;4.00;;;0.98;;
76131;SDS011;64877;50.994;13.650;2023-11-21T02:53:53;2.95;;;1.10;;
76131;SDS011;64877;50.994;13.650;2023-11-21T02:56:19;4.35;;;1.30;;
76131;SDS011;64877;50.994;13.650;2023-11-21T02:58:45;3.60;;;0.88;;
76131;SDS011;64877;50.994;13.650;2023-11-21T03:01:10;4.28;;;0.90;;
76131;SDS011;64877;50.994;13.650;2023-11-21T03:03:36;3.22;;;1.05;;
76131;SDS011;64877;50.994;13.650;2023-11-21T03:06:05;5.80;;;1.40;;
76131;SDS011;64877;50.994;13.650;2023-11-21T03:08:32;4.72;;;1.25;;
76131;SDS011;64877;50.994;13.650;2023-11-21T03:10:57;2.30;;;1.00;;
76131;SDS011;64877;50.994;13.650;2023-11-21T03:13:23;4.40;;;1.45;;
76131;SDS011;64877;50.994;13.650;2023-11-21T03:15:49;4.88;;;1.13;;
76131;SDS011;64877;50.994;13.650;2023-11-21T03:18:14;5.93;;;1.63;;
76131;SDS011;64877;50.994;13.650;2023-11-21T03:20:40;3.53;;;1.00;;
76131;SDS011;64877;50.994;13.650;2023-11-21T03:23:06;8.57;;;1.52;;
76131;SDS011;64877;50.994;13.650;2023-11-21T03:25:32;4.25;;;1.30;;
76131;SDS011;64877;50.994;13.650;2023-11-21T03:27:57;4.90;;;1.30;;
76131;SDS011;64877;50.994;13.650;2023-11-21T03:30:23;2.97;;;1.30;;
76131;SDS011;64877;50.994;13.650;2023-11-21T03:32:48;6.20;;;1.60;;
76131;SDS011;64877;50.994;13.650;2023-11-21T03:35:14;7.25;;;2.08;;
76131;SDS011;64877;50.994;13.650;2023-11-21T03:37:39;11.23;;;1.95;;
76131;SDS011;64877;50.994;13.650;2023-11-21T03:40:07;14.68;;;2.05;;
76131;SDS011;64877;50.994;13.650;2023-11-21T03:42:37;12.65;;;2.30;;
76131;SDS011;64877;50.994;13.650;2023-11-21T03:45:04;7.75;;;1.90;;
76131;SDS011;64877;50.994;13.650;2023-11-21T03:47:30;7.57;;;2.10;;
76131;SDS011;64877;50.994;13.650;2023-11-21T03:49:55;6.50;;;1.83;;
76131;SDS011;64877;50.994;13.650;2023-11-21T03:52:21;9.60;;;1.60;;
76131;SDS011;64877;50.994;13.650;2023-11-21T03:54:46;6.10;;;1.48;;
76131;SDS011;64877;50.994;13.650;2023-11-21T03:57:12;7.28;;;2.10;;
76131;SDS011;64877;50.994;13.650;2023-11-21T03:59:41;8.48;;;2.05;;
76131;SDS011;64877;50.994;13.650;2023-11-21T04:02:07;5.90;;;1.70;;
76131;SDS011;64877;50.994;13.650;2023-11-21T04:04:33;6.35;;;2.30;;
76131;SDS011;64877;50.994;13.650;2023-11-21T04:06:59;3.72;;;1.40;;
76131;SDS011;64877;50.994;13.650;2023-11-21T04:09:24;4.15;;;1.75;;
76131;SDS011;64877;50.994;13.650;2023-11-21T04:11:53;7.68;;;2.50;;
76131;SDS011;64877;50.994;13.650;2023-11-21T04:14:18;10.15;;;3.60;;
76131;SDS011;64877;50.994;13.650;2023-11-21T04:16:45;8.88;;;3.30;;
76131;SDS011;64877;50.994;13.650;2023-11-21T04:19:11;5.32;;;2.58;;
76131;SDS011;64877;50.994;13.650;2023-11-21T04:21:36;5.57;;;2.85;;
76131;SDS011;64877;50.994;13.650;2023-11-21T04:24:02;5.20;;;2.22;;
76131;SDS011;64877;50.994;13.650;2023-11-21T04:26:28;7.03;;;1.90;;
76131;SDS011;64877;50.994;13.650;2023-11-21T04:28:53;4.22;;;1.88;;
76131;SDS011;64877;50.994;13.650;2023-11-21T04:31:19;4.75;;;1.70;;
76131;SDS011;64877;50.994;13.650;2023-11-21T04:33:44;11.00;;;2.00;;
76131;SDS011;64877;50.994;13.650;2023-11-21T04:36:10;7.88;;;1.85;;
76131;SDS011;64877;50.994;13.650;2023-11-21T04:38:35;4.65;;;2.05;;
76131;SDS011;64877;50.994;13.650;2023-11-21T04:41:01;5.05;;;1.90;;
76131;SDS011;64877;50.994;13.650;2023-11-21T04:43:27;6.72;;;2.05;;
76131;SDS011;64877;50.994;13.650;2023-11-21T04:45:53;5.70;;;2.00;;
76131;SDS011;64877;50.994;13.650;2023-11-21T04:48:20;11.23;;;2.35;;
76131;SDS011;64877;50.994;13.650;2023-11-21T04:50:45;3.85;;;2.10;;
76131;SDS011;64877;50.994;13.650;2023-11-21T04:53:11;8.82;;;2.60;;
76131;SDS011;64877;50.994;13.650;2023-11-21T04:55:39;9.38;;;2.50;;
76131;SDS011;64877;50.994;13.650;2023-11-21T04:58:05;8.38;;;2.45;;
76131;SDS011;64877;50.994;13.650;2023-11-21T05:00:31;6.88;;;1.85;;
76131;SDS011;64877;50.994;13.650;2023-11-21T05:02:57;7.25;;;2.58;;
76131;SDS011;64877;50.994;13.650;2023-11-21T05:05:22;4.63;;;2.30;;
76131;SDS011;64877;50.994;13.650;2023-11-21T05:07:48;8.57;;;2.13;;
76131;SDS011;64877;50.994;13.650;2023-11-21T05:10:14;5.05;;;2.05;;
76131;SDS011;64877;50.994;13.650;2023-11-21T05:12:40;6.60;;;2.40;;
76131;SDS011;64877;50.994;13.650;2023-11-21T05:15:06;6.07;;;2.13;;
76131;SDS011;64877;50.994;13.650;2023-11-21T05:17:36;6.85;;;2.30;;
76131;SDS011;64877;50.994;13.650;2023-11-21T05:20:03;7.38;;;2.83;;
76131;SDS011;64877;50.994;13.650;2023-11-21T05:22:33;5.40;;;2.35;;
76131;SDS011;64877;50.994;13.650;2023-11-21T05:24:59;8.00;;;2.60;;
76131;SDS011;64877;50.994;13.650;2023-11-21T05:27:25;6.55;;;2.28;;
76131;SDS011;64877;50.994;13.650;2023-11-21T05:29:51;9.20;;;2.60;;
76131;SDS011;64877;50.994;13.650;2023-11-21T05:32:16;6.38;;;2.60;;
76131;SDS011;64877;50.994;13.650;2023-11-21T05:34:42;9.48;;;3.03;;
76131;SDS011;64877;50.994;13.650;2023-11-21T05:37:08;6.05;;;2.63;;
76131;SDS011;64877;50.994;13.650;2023-11-21T05:39:33;7.72;;;2.40;;
76131;SDS011;64877;50.994;13.650;2023-11-21T05:41:59;3.95;;;2.30;;
76131;SDS011;64877;50.994;13.650;2023-11-21T05:44:25;6.20;;;2.33;;
76131;SDS011;64877;50.994;13.650;2023-11-21T05:46:50;7.93;;;2.38;;
76131;SDS011;64877;50.994;13.650;2023-11-21T05:49:16;10.98;;;3.08;;
76131;SDS011;64877;50.994;13.650;2023-11-21T05:51:41;6.50;;;2.40;;
76131;SDS011;64877;50.994;13.650;2023-11-21T05:54:07;12.45;;;2.80;;
76131;SDS011;64877;50.994;13.650;2023-11-21T05:56:33;7.00;;;2.38;;
76131;SDS011;64877;50.994;13.650;2023-11-21T05:58:59;8.30;;;3.30;;
76131;SDS011;64877;50.994;13.650;2023-11-21T06:01:25;5.03;;;2.70;;
76131;SDS011;64877;50.994;13.650;2023-11-21T06:03:53;9.88;;;3.97;;
76131;SDS011;64877;50.994;13.650;2023-11-21T06:06:20;11.23;;;3.85;;
76131;SDS011;64877;50.994;13.650;2023-11-21T06:08:48;7.88;;;2.78;;
76131;SDS011;64877;50.994;13.650;2023-11-21T06:11:14;12.70;;;3.40;;
76131;SDS011;64877;50.994;13.650;2023-11-21T06:13:39;7.85;;;2.70;;
76131;SDS011;64877;50.994;13.650;2023-11-21T06:16:05;12.85;;;3.00;;
76131;SDS011;64877;50.994;13.650;2023-11-21T06:18:31;8.80;;;3.10;;
76131;SDS011;64877;50.994;13.650;2023-11-21T06:20:56;7.60;;;3.13;;
76131;SDS011;64877;50.994;13.650;2023-11-21T06:23:21;10.93;;;3.50;;
76131;SDS011;64877;50.994;13.650;2023-11-21T06:25:47;6.72;;;3.10;;
76131;SDS011;64877;50.994;13.650;2023-11-21T06:28:13;9.95;;;3.38;;
76131;SDS011;64877;50.994;13.650;2023-11-21T06:33:07;10.50;;;3.20;;
76131;SDS011;64877;50.994;13.650;2023-11-21T06:35:33;11.32;;;3.03;;
76131;SDS011;64877;50.994;13.650;2023-11-21T06:38:00;13.88;;;4.55;;
76131;SDS011;64877;50.994;13.650;2023-11-21T06:40:25;8.30;;;3.78;;
76131;SDS011;64877;50.994;13.650;2023-11-21T06:42:51;7.88;;;4.10;;
76131;SDS011;64877;50.994;13.650;2023-11-21T06:45:16;10.75;;;3.65;;
76131;SDS011;64877;50.994;13.650;2023-11-21T06:47:42;10.55;;;3.72;;
76131;SDS011;64877;50.994;13.650;2023-11-21T06:50:08;10.35;;;3.92;;
76131;SDS011;64877;50.994;13.650;2023-11-21T06:52:34;15.45;;;4.25;;
76131;SDS011;64877;50.994;13.650;2023-11-21T06:54:59;8.82;;;3.47;;
76131;SDS011;64877;50.994;13.650;2023-11-21T06:57:25;9.57;;;3.60;;
76131;SDS011;64877;50.994;13.650;2023-11-21T06:59:50;14.50;;;4.18;;
76131;SDS011;64877;50.994;13.650;2023-11-21T07:02:16;7.57;;;3.20;;
76131;SDS011;64877;50.994;13.650;2023-11-21T07:04:44;10.35;;;3.28;;
76131;SDS011;64877;50.994;13.650;2023-11-21T07:07:11;8.40;;;3.28;;
76131;SDS011;64877;50.994;13.650;2023-11-21T07:09:37;11.35;;;3.63;;
76131;SDS011;64877;50.994;13.650;2023-11-21T07:12:02;5.75;;;3.10;;
76131;SDS011;64877;50.994;13.650;2023-11-21T07:14:31;10.00;;;3.58;;
76131;SDS011;64877;50.994;13.650;2023-11-21T07:16:57;11.13;;;3.63;;
76131;SDS011;64877;50.994;13.650;2023-11-21T07:19:22;11.43;;;3.28;;
76131;SDS011;64877;50.994;13.650;2023-11-21T07:21:48;10.52;;;3.92;;
76131;SDS011;64877;50.994;13.650;2023-11-21T07:24:16;9.20;;;3.15;;
76131;SDS011;64877;50.994;13.650;2023-11-21T07:26:41;9.75;;;3.17;;
76131;SDS011;64877;50.994;13.650;2023-11-21T07:29:08;10.15;;;3.28;;
76131;SDS011;64877;50.994;13.650;2023-11-21T07:31:34;10.27;;;3.38;;
76131;SDS011;64877;50.994;13.650;2023-11-21T07:33:59;9.35;;;3.35;;
76131;SDS011;64877;50.994;13.650;2023-11-21T07:36:26;9.30;;;3.40;;
76131;SDS011;64877;50.994;13.650;2023-11-21T07:38:51;10.65;;;3.65;;
76131;SDS011;64877;50.994;13.650;2023-11-21T07:41:17;10.88;;;4.05;;
76131;SDS011;64877;50.994;13.650;2023-11-21T07:43:46;14.52;;;3.95;;
76131;SDS011;64877;50.994;13.650;2023-11-21T07:46:12;9.77;;;4.28;;
76131;SDS011;64877;50.994;13.650;2023-11-21T07:48:39;8.98;;;3.42;;
76131;SDS011;64877;50.994;13.650;2023-11-21T07:51:06;8.93;;;3.92;;
76131;SDS011;64877;50.994;13.650;2023-11-21T07:53:35;13.88;;;3.78;;
76131;SDS011;64877;50.994;13.650;2023-11-21T07:56:04;9.88;;;3.80;;
76131;SDS011;64877;50.994;13.650;2023-11-21T07:58:31;13.27;;;3.90;;
76131;SDS011;64877;50.994;13.650;2023-11-21T08:00:58;11.05;;;4.35;;
76131;SDS011;64877;50.994;13.650;2023-11-21T08:03:24;11.68;;;3.50;;
76131;SDS011;64877;50.994;13.650;2023-11-21T08:05:51;11.90;;;3.72;;
76131;SDS011;64877;50.994;13.650;2023-11-21T08:08:17;9.30;;;3.83;;
76131;SDS011;64877;50.994;13.650;2023-11-21T08:10:45;12.70;;;3.92;;
76131;SDS011;64877;50.994;13.650;2023-11-21T08:13:13;10.70;;;4.03;;
76131;SDS011;64877;50.994;13.650;2023-11-21T08:15:41;11.32;;;4.72;;
76131;SDS011;64877;50.994;13.650;2023-11-21T08:18:11;14.32;;;4.28;;
76131;SDS011;64877;50.994;13.650;2023-11-21T08:20:38;11.32;;;5.22;;
76131;SDS011;64877;50.994;13.650;2023-11-21T08:23:05;10.65;;;4.03;;
76131;SDS011;64877;50.994;13.650;2023-11-21T08:25:31;12.43;;;4.97;;
76131;SDS011;64877;50.994;13.650;2023-11-21T08:27:57;13.63;;;6.35;;
76131;SDS011;64877;50.994;13.650;2023-11-21T08:30:22;10.82;;;4.55;;
76131;SDS011;64877;50.994;13.650;2023-11-21T08:32:49;10.30;;;5.18;;
76131;SDS011;64877;50.994;13.650;2023-11-21T08:35:17;13.35;;;4.78;;
76131;SDS011;64877;50.994;13.650;2023-11-21T08:37:42;12.07;;;4.65;;
76131;SDS011;64877;50.994;13.650;2023-11-21T08:40:08;11.55;;;5.28;;
76131;SDS011;64877;50.994;13.650;2023-11-21T08:42:41;11.45;;;4.75;;
76131;SDS011;64877;50.994;13.650;2023-11-21T08:45:08;12.07;;;5.03;;
76131;SDS011;64877;50.994;13.650;2023-11-21T08:47:34;13.35;;;4.03;;
76131;SDS011;64877;50.994;13.650;2023-11-21T08:50:01;8.48;;;3.95;;
76131;SDS011;64877;50.994;13.650;2023-11-21T08:52:30;10.45;;;3.33;;
76131;SDS011;64877;50.994;13.650;2023-11-21T08:54:56;9.65;;;3.22;;
76131;SDS011;64877;50.994;13.650;2023-11-21T08:57:21;8.38;;;3.10;;
76131;SDS011;64877;50.994;13.650;2023-11-21T08:59:47;8.80;;;3.65;;
76131;SDS011;64877;50.994;13.650;2023-11-21T09:02:13;8.05;;;3.15;;
76131;SDS011;64877;50.994;13.650;2023-11-21T09:04:38;10.15;;;3.72;;
76131;SDS011;64877;50.994;13.650;2023-11-21T09:07:04;9.60;;;3.38;;
76131;SDS011;64877;50.994;13.650;2023-11-21T09:09:30;9.43;;;4.05;;
76131;SDS011;64877;50.994;13.650;2023-11-21T09:11:56;7.75;;;3.90;;
76131;SDS011;64877;50.994;13.650;2023-11-21T09:14:21;15.52;;;4.85;;
76131;SDS011;64877;50.994;13.650;2023-11-21T09:16:47;6.47;;;3.30;;
76131;SDS011;64877;50.994;13.650;2023-11-21T09:19:12;9.00;;;3.75;;
76131;SDS011;64877;50.994;13.650;2023-11-21T09:21:39;9.18;;;4.07;;
76131;SDS011;64877;50.994;13.650;2023-11-21T09:24:05;6.03;;;3.45;;
76131;SDS011;64877;50.994;13.650;2023-11-21T09:26:30;10.60;;;3.40;;
76131;SDS011;64877;50.994;13.650;2023-11-21T09:28:56;6.95;;;3.08;;
76131;SDS011;64877;50.994;13.650;2023-11-21T09:31:22;7.63;;;3.65;;
76131;SDS011;64877;50.994;13.650;2023-11-21T09:33:49;7.25;;;3.28;;
76131;SDS011;64877;50.994;13.650;2023-11-21T09:36:14;4.78;;;2.92;;
76131;SDS011;64877;50.994;13.650;2023-11-21T09:38:40;8.15;;;2.83;;
76131;SDS011;64877;50.994;13.650;2023-11-21T09:41:08;6.22;;;3.38;;
76131;SDS011;64877;50.994;13.650;2023-11-21T09:43:43;5.75;;;2.70;;
76131;SDS011;64877;50.994;13.650;2023-11-21T09:46:12;4.18;;;3.33;;
76131;SDS011;64877;50.994;13.650;2023-11-21T09:48:45;5.03;;;2.67;;
76131;SDS011;64877;50.994;13.650;2023-11-21T09:51:15;5.93;;;2.90;;
76131;SDS011;64877;50.994;13.650;2023-11-21T09:53:45;4.70;;;2.13;;
76131;SDS011;64877;50.994;13.650;2023-11-21T09:56:14;3.95;;;2.58;;
76131;SDS011;64877;50.994;13.650;2023-11-21T09:58:44;4.85;;;2.38;;
76131;SDS011;64877;50.994;13.650;2023-11-21T10:01:10;3.90;;;1.95;;
76131;SDS011;64877;50.994;13.650;2023-11-21T10:03:39;4.07;;;2.30;;
76131;SDS011;64877;50.994;13.650;2023-11-21T10:06:05;3.35;;;1.83;;
76131;SDS011;64877;50.994;13.650;2023-11-21T10:08:31;2.60;;;1.73;;
76131;SDS011;64877;50.994;13.650;2023-11-21T10:10:57;2.50;;;1.20;;
76131;SDS011;64877;50.994;13.650;2023-11-21T10:13:24;2.22;;;1.20;;
76131;SDS011;64877;50.994;13.650;2023-11-21T10:15:55;2.42;;;1.30;;
76131;SDS011;64877;50.994;13.650;2023-11-21T10:18:24;2.63;;;1.35;;
76131;SDS011;64877;50.994;13.650;2023-11-21T10:20:51;2.65;;;1.67;;
76131;SDS011;64877;50.994;13.650;2023-11-21T10:23:19;2.70;;;1.77;;
76131;SDS011;64877;50.994;13.650;2023-11-21T10:25:46;2.00;;;1.40;;
76131;SDS011;64877;50.994;13.650;2023-11-21T10:28:11;3.97;;;1.42;;
76131;SDS011;64877;50.994;13.650;2023-11-21T10:30:37;2.78;;;1.60;;
76131;SDS011;64877;50.994;13.650;2023-11-21T10:33:04;3.03;;;1.67;;
76131;SDS011;64877;50.994;13.650;2023-11-21T10:35:42;4.53;;;1.88;;
76131;SDS011;64877;50.994;13.650;2023-11-21T10:38:07;5.25;;;3.58;;
76131;SDS011;64877;50.994;13.650;2023-11-21T10:40:38;7.15;;;3.15;;
76131;SDS011;64877;50.994;13.650;2023-11-21T10:43:07;5.60;;;2.90;;
76131;SDS011;64877;50.994;13.650;2023-11-21T10:45:34;6.25;;;3.33;;
76131;SDS011;64877;50.994;13.650;2023-11-21T10:48:04;6.88;;;4.25;;
76131;SDS011;64877;50.994;13.650;2023-11-21T10:50:37;10.05;;;4.70;;
76131;SDS011;64877;50.994;13.650;2023-11-21T10:53:03;8.70;;;4.72;;
76131;SDS011;64877;50.994;13.650;2023-11-21T10:55:30;12.02;;;6.32;;
76131;SDS011;64877;50.994;13.650;2023-11-21T10:57:58;9.27;;;5.55;;
76131;SDS011;64877;50.994;13.650;2023-11-21T11:00:25;10.70;;;5.18;;
76131;SDS011;64877;50.994;13.650;2023-11-21T11:02:52;10.40;;;5.72;;
76131;SDS011;64877;50.994;13.650;2023-11-21T11:05:22;10.93;;;6.15;;
76131;SDS011;64877;50.994;13.650;2023-11-21T11:07:52;9.60;;;6.22;;
76131;SDS011;64877;50.994;13.650;2023-11-21T11:10:25;10.77;;;5.65;;
76131;SDS011;64877;50.994;13.650;2023-11-21T11:12:53;10.15;;;5.43;;
76131;SDS011;64877;50.994;13.650;2023-11-21T11:15:19;10.60;;;5.05;;
76131;SDS011;64877;50.994;13.650;2023-11-21T11:17:45;8.18;;;4.70;;
76131;SDS011;64877;50.994;13.650;2023-11-21T11:20:12;9.52;;;5.05;;
76131;SDS011;64877;50.994;13.650;2023-11-21T11:23:04;9.90;;;3.97;;
76131;SDS011;64877;50.994;13.650;2023-11-21T11:28:10;8.07;;;4.80;;
76131;SDS011;64877;50.994;13.650;2023-11-21T11:31:01;7.93;;;5.13;;
76131;SDS011;64877;50.994;13.650;2023-11-21T11:36:31;10.25;;;5.97;;
76131;SDS011;64877;50.994;13.650;2023-11-21T11:39:02;9.05;;;5.40;;
76131;SDS011;64877;50.994;13.650;2023-11-21T11:41:31;8.38;;;5.07;;
76131;SDS011;64877;50.994;13.650;2023-11-21T11:44:02;9.75;;;5.10;;
76131;SDS011;64877;50.994;13.650;2023-11-21T11:46:44;7.05;;;4.60;;
76131;SDS011;64877;50.994;13.650;2023-11-21T11:49:28;8.45;;;5.07;;
76131;SDS011;64877;50.994;13.650;2023-11-21T11:54:38;9.70;;;5.22;;
76131;SDS011;64877;50.994;13.650;2023-11-21T11:57:03;9.70;;;5.78;;
76131;SDS011;64877;50.994;13.650;2023-11-21T11:59:29;10.82;;;6.07;;
76131;SDS011;64877;50.994;13.650;2023-11-21T12:01:54;10.82;;;6.30;;
76131;SDS011;64877;50.994;13.650;2023-11-21T12:04:23;12.45;;;7.20;;
76131;SDS011;64877;50.994;13.650;2023-11-21T12:06:52;15.77;;;7.60;;
76131;SDS011;64877;50.994;13.650;2023-11-21T12:09:19;11.65;;;7.00;;
76131;SDS011;64877;50.994;13.650;2023-11-21T12:14:12;13.88;;;7.30;;
76131;SDS011;64877;50.994;13.650;2023-11-21T12:16:39;17.95;;;8.63;;
76131;SDS011;64877;50.994;13.650;2023-11-21T12:19:05;16.50;;;9.13;;
76131;SDS011;64877;50.994;13.650;2023-11-21T12:21:30;14.77;;;7.93;;
76131;SDS011;64877;50.994;13.650;2023-11-21T12:23:57;14.60;;;7.97;;
76131;SDS011;64877;50.994;13.650;2023-11-21T12:26:23;12.82;;;7.50;;
76131;SDS011;64877;50.994;13.650;2023-11-21T12:28:53;12.13;;;7.07;;
76131;SDS011;64877;50.994;13.650;2023-11-21T12:31:22;13.27;;;8.50;;
76131;SDS011;64877;50.994;13.650;2023-11-21T12:33:50;14.00;;;8.05;;
76131;SDS011;64877;50.994;13.650;2023-11-21T12:36:16;14.48;;;7.75;;
76131;SDS011;64877;50.994;13.650;2023-11-21T12:38:42;12.50;;;7.25;;
76131;SDS011;64877;50.994;13.650;2023-11-21T12:41:11;12.27;;;7.35;;
76131;SDS011;64877;50.994;13.650;2023-11-21T12:43:36;13.52;;;7.80;;
76131;SDS011;64877;50.994;13.650;2023-11-21T12:46:05;19.45;;;8.65;;
76131;SDS011;64877;50.994;13.650;2023-11-21T12:48:31;11.52;;;6.68;;
76131;SDS011;64877;50.994;13.650;2023-11-21T12:50:57;11.82;;;6.63;;
76131;SDS011;64877;50.994;13.650;2023-11-21T12:53:25;11.00;;;6.20;;
76131;SDS011;64877;50.994;13.650;2023-11-21T12:55:51;9.50;;;6.13;;
76131;SDS011;64877;50.994;13.650;2023-11-21T12:58:17;8.65;;;5.95;;
76131;SDS011;64877;50.994;13.650;2023-11-21T13:00:48;9.93;;;6.43;;
76131;SDS011;64877;50.994;13.650;2023-11-21T13:03:15;11.80;;;6.40;;
76131;SDS011;64877;50.994;13.650;2023-11-21T13:05:43;10.10;;;6.22;;
76131;SDS011;64877;50.994;13.650;2023-11-21T13:08:11;9.60;;;6.22;;
76131;SDS011;64877;50.994;13.650;2023-11-21T13:10:38;9.55;;;5.90;;
76131;SDS011;64877;50.994;13.650;2023-11-21T13:13:07;9.30;;;5.90;;
76131;SDS011;64877;50.994;13.650;2023-11-21T13:15:35;11.50;;;6.30;;
76131;SDS011;64877;50.994;13.650;2023-11-21T13:18:06;9.02;;;5.30;;
76131;SDS011;64877;50.994;13.650;2023-11-21T13:20:32;10.50;;;4.72;;
76131;SDS011;64877;50.994;13.650;2023-11-21T13:22:58;9.85;;;4.93;;
76131;SDS011;64877;50.994;13.650;2023-11-21T13:25:28;10.52;;;4.03;;
76131;SDS011;64877;50.994;13.650;2023-11-21T13:27:54;8.02;;;4.50;;
76131;SDS011;64877;50.994;13.650;2023-11-21T13:30:20;6.47;;;4.07;;
76131;SDS011;64877;50.994;13.650;2023-11-21T13:32:51;8.70;;;4.28;;
76131;SDS011;64877;50.994;13.650;2023-11-21T13:35:17;8.80;;;4.78;;
76131;SDS011;64877;50.994;13.650;2023-11-21T13:37:46;9.73;;;5.10;;
76131;SDS011;64877;50.994;13.650;2023-11-21T13:40:15;8.00;;;4.57;;
76131;SDS011;64877;50.994;13.650;2023-11-21T13:42:45;26.70;;;6.40;;
76131;SDS011;64877;50.994;13.650;2023-11-21T13:45:11;10.05;;;5.22;;
76131;SDS011;64877;50.994;13.650;2023-11-21T13:47:37;8.27;;;5.57;;
76131;SDS011;64877;50.994;13.650;2023-11-21T13:50:05;9.40;;;6.65;;
76131;SDS011;64877;50.994;13.650;2023-11-21T13:52:39;12.25;;;6.30;;
76131;SDS011;64877;50.994;13.650;2023-11-21T13:55:04;10.23;;;5.85;;
76131;SDS011;64877;50.994;13.650;2023-11-21T13:57:36;9.68;;;5.35;;
76131;SDS011;64877;50.994;13.650;2023-11-21T14:00:03;12.98;;;6.90;;
76131;SDS011;64877;50.994;13.650;2023-11-21T14:02:36;11.82;;;6.68;;
76131;SDS011;64877;50.994;13.650;2023-11-21T14:05:07;11.18;;;6.80;;
76131;SDS011;64877;50.994;13.650;2023-11-21T14:07:34;13.13;;;6.97;;
76131;SDS011;64877;50.994;13.650;2023-11-21T14:10:03;13.32;;;8.27;;
76131;SDS011;64877;50.994;13.650;2023-11-21T14:12:30;12.55;;;7.13;;
76131;SDS011;64877;50.994;13.650;2023-11-21T14:14:59;13.60;;;6.15;;
76131;SDS011;64877;50.994;13.650;2023-11-21T14:17:25;13.45;;;6.93;;
76131;SDS011;64877;50.994;13.650;2023-11-21T14:19:50;14.25;;;8.32;;
76131;SDS011;64877;50.994;13.650;2023-11-21T14:22:16;9.57;;;5.72;;
76131;SDS011;64877;50.994;13.650;2023-11-21T14:24:42;10.77;;;5.90;;
76131;SDS011;64877;50.994;13.650;2023-11-21T14:27:11;9.95;;;5.75;;
76131;SDS011;64877;50.994;13.650;2023-11-21T14:29:38;10.25;;;6.15;;
76131;SDS011;64877;50.994;13.650;2023-11-21T14:32:07;10.90;;;6.07;;
76131;SDS011;64877;50.994;13.650;2023-11-21T14:34:33;11.05;;;6.22;;
76131;SDS011;64877;50.994;13.650;2023-11-21T14:36:58;10.98;;;5.20;;
76131;SDS011;64877;50.994;13.650;2023-11-21T14:39:24;10.57;;;5.82;;
76131;SDS011;64877;50.994;13.650;2023-11-21T14:41:52;9.75;;;5.57;;
76131;SDS011;64877;50.994;13.650;2023-11-21T14:44:21;9.77;;;5.78;;